^^
Datos históricos de la estación: Murcia-Puente Tocinos
Diario Informe para Julio 12, 2018 Unidades:  Ambas    Inglés   Métrico
Diario Semanal Mensual Anual Configurable
  Máximo: Mínimo: Media:
Temperatura: 92.5 °F /  33.6 °C 74.1 °F /  23.4 °C 81.5 °F /  27.5 °C
Punto de rocio: 70.9 °F /  21.6 °C 60.6 °F /  15.9 °C 68.5 °F /  20.3 °C
Humedad: 86% 35% 67%
Velocidad viento: 13mph /  20.9km/h - 5.2mph /  8.3km/h
Racha viento: 21.9mph /  35.2km/h - -
Viento- - SE
Presión: 29.9 in /  1013.5 hPa 29.8 in /  1009.9 hPa -
Precipitación: 0 in /  0.0 mm    
Historical Graphs
 
 
Tabla de datos para Julio 12, 2018
Hora Temperatura Punto de rocio Presión Viento Velocidad viento Racha viento Humedad Intensidad lluvia(por hora) Nubes
00:04 75.9 °F /  24.4 °C 70.3 °F /  21.3 °C 29.8in /  1010.6hPa NE 4.7mph /  7.6km/h 5.8mph /  9.3km/h 83% 0in /  0.0mm CLR
00:09 75.7 °F /  24.3 °C 70.5 °F /  21.4 °C 29.8in /  1010.6hPa NNE 3.6mph /  5.8km/h 10.4mph /  16.7km/h 84% 0in /  0.0mm CLR
00:14 75.7 °F /  24.3 °C 70.5 °F /  21.4 °C 29.8in /  1010.6hPa NE 3.6mph /  5.8km/h 5.8mph /  9.3km/h 84% 0in /  0.0mm CLR
00:19 75.6 °F /  24.2 °C 70.3 °F /  21.3 °C 29.8in /  1010.7hPa NNE 5.2mph /  8.4km/h 6.9mph /  11.1km/h 84% 0in /  0.0mm CLR
00:24 75.6 °F /  24.2 °C 70.7 °F /  21.5 °C 29.8in /  1010.7hPa NE 5.2mph /  8.4km/h 6.9mph /  11.1km/h 85% 0in /  0.0mm CLR
00:29 75.6 °F /  24.2 °C 70.7 °F /  21.5 °C 29.8in /  1010.7hPa NE 4.7mph /  7.6km/h 5.8mph /  9.3km/h 85% 0in /  0.0mm CLR
00:34 75.6 °F /  24.2 °C 70.7 °F /  21.5 °C 29.8in /  1010.7hPa NNE 4.7mph /  7.6km/h 4.6mph /  7.4km/h 85% 0in /  0.0mm
00:39 75.6 °F /  24.2 °C 70.7 °F /  21.5 °C 29.8in /  1010.7hPa NE 4mph /  6.4km/h 5.8mph /  9.3km/h 85% 0in /  0.0mm
00:44 75.6 °F /  24.2 °C 70.7 °F /  21.5 °C 29.8in /  1010.7hPa NE 4mph /  6.4km/h 4.6mph /  7.4km/h 85% 0in /  0.0mm
00:49 75.4 °F /  24.1 °C 70.5 °F /  21.4 °C 29.9in /  1010.9hPa ENE 3.6mph /  5.8km/h 4.6mph /  7.4km/h 85% 0in /  0.0mm
00:54 75.4 °F /  24.1 °C 70.5 °F /  21.4 °C 29.9in /  1010.9hPa NE 3.6mph /  5.8km/h 4.7mph /  7.6km/h 85% 0in /  0.0mm
00:59 75.4 °F /  24.1 °C 70.5 °F /  21.4 °C 29.9in /  1010.9hPa NE 3.6mph /  5.8km/h 8.1mph /  13.0km/h 85% 0in /  0.0mm
01:04 75.2 °F /  24.0 °C 70.7 °F /  21.5 °C 29.8in /  1010.7hPa NE 3.6mph /  5.8km/h 6.9mph /  11.1km/h 86% 0in /  0.0mm
01:09 75.2 °F /  24.0 °C 70.7 °F /  21.5 °C 29.8in /  1010.7hPa ENE 4.7mph /  7.6km/h 4.6mph /  7.4km/h 86% 0in /  0.0mm
01:14 75 °F /  23.9 °C 70.5 °F /  21.4 °C 29.8in /  1010.7hPa NNE 4.7mph /  7.6km/h 5.8mph /  9.3km/h 86% 0in /  0.0mm
01:19 75 °F /  23.9 °C 70.5 °F /  21.4 °C 29.9in /  1010.9hPa ENE 3.6mph /  5.8km/h 4.6mph /  7.4km/h 86% 0in /  0.0mm
01:24 75 °F /  23.9 °C 70.5 °F /  21.4 °C 29.9in /  1010.9hPa NE 3.6mph /  5.8km/h 6.9mph /  11.1km/h 86% 0in /  0.0mm
01:29 75 °F /  23.9 °C 70.5 °F /  21.4 °C 29.9in /  1010.9hPa NNE 4mph /  6.4km/h 4.6mph /  7.4km/h 86% 0in /  0.0mm
01:34 75 °F /  23.9 °C 70.5 °F /  21.4 °C 29.9in /  1011.0hPa North 4mph /  6.4km/h 5.2mph /  8.4km/h 86% 0in /  0.0mm
01:39 75 °F /  23.9 °C 70.5 °F /  21.4 °C 29.9in /  1011.0hPa NNE 3.6mph /  5.8km/h 5.8mph /  9.3km/h 86% 0in /  0.0mm
01:44 75 °F /  23.9 °C 70.5 °F /  21.4 °C 29.9in /  1011.0hPa East 3.6mph /  5.8km/h 4.6mph /  7.4km/h 86% 0in /  0.0mm
01:49 75 °F /  23.9 °C 70.5 °F /  21.4 °C 29.9in /  1011.0hPa ENE 3.6mph /  5.8km/h 4.6mph /  7.4km/h 86% 0in /  0.0mm
01:54 75 °F /  23.9 °C 70.5 °F /  21.4 °C 29.9in /  1011.0hPa ENE 3.6mph /  5.8km/h 6.9mph /  11.1km/h 86% 0in /  0.0mm
01:59 75 °F /  23.9 °C 70.5 °F /  21.4 °C 29.9in /  1011.0hPa NNE 3.1mph /  5.0km/h 4.7mph /  7.6km/h 86% 0in /  0.0mm
02:04 75 °F /  23.9 °C 70.5 °F /  21.4 °C 29.9in /  1011.0hPa NE 3.1mph /  5.0km/h 4.6mph /  7.4km/h 86% 0in /  0.0mm
02:09 75.2 °F /  24.0 °C 70.7 °F /  21.5 °C 29.9in /  1011.0hPa ENE 3.1mph /  5.0km/h 5.8mph /  9.3km/h 86% 0in /  0.0mm
02:14 75.4 °F /  24.1 °C 70.9 °F /  21.6 °C 29.9in /  1011.0hPa NE 3.1mph /  5.0km/h 4.6mph /  7.4km/h 86% 0in /  0.0mm
02:19 75.4 °F /  24.1 °C 70.9 °F /  21.6 °C 29.9in /  1011.0hPa NE 2.9mph /  4.7km/h 5.8mph /  9.3km/h 86% 0in /  0.0mm
02:24 75.6 °F /  24.2 °C 70.7 °F /  21.5 °C 29.9in /  1011.0hPa NE 2.9mph /  4.7km/h 8.1mph /  13.0km/h 85% 0in /  0.0mm
02:29 75.6 °F /  24.2 °C 70.7 °F /  21.5 °C 29.9in /  1011.0hPa NE 4mph /  6.4km/h 6.9mph /  11.1km/h 85% 0in /  0.0mm
02:34 75.6 °F /  24.2 °C 70.7 °F /  21.5 °C 29.9in /  1011.0hPa NE 4mph /  6.4km/h 4.6mph /  7.4km/h 85% 0in /  0.0mm
02:39 75.7 °F /  24.3 °C 70.9 °F /  21.6 °C 29.9in /  1011.0hPa ENE 3.6mph /  5.8km/h 5.4mph /  8.7km/h 85% 0in /  0.0mm
02:44 75.7 °F /  24.3 °C 70.5 °F /  21.4 °C 29.9in /  1011.0hPa ENE 3.6mph /  5.8km/h 5.8mph /  9.3km/h 84% 0in /  0.0mm
02:49 75.9 °F /  24.4 °C 70.7 °F /  21.5 °C 29.9in /  1010.9hPa East 2.9mph /  4.7km/h 6.9mph /  11.1km/h 84% 0in /  0.0mm
02:54 75.9 °F /  24.4 °C 70.7 °F /  21.5 °C 29.9in /  1010.9hPa NNE 2.9mph /  4.7km/h 6.9mph /  11.1km/h 84% 0in /  0.0mm
02:59 75.9 °F /  24.4 °C 70.7 °F /  21.5 °C 29.9in /  1010.9hPa NNW 4mph /  6.4km/h 4.6mph /  7.4km/h 84% 0in /  0.0mm
03:04 76.1 °F /  24.5 °C 70.9 °F /  21.6 °C 29.9in /  1010.9hPa NNW 4mph /  6.4km/h 4.6mph /  7.4km/h 84% 0in /  0.0mm
03:09 76.3 °F /  24.6 °C 70.7 °F /  21.5 °C 29.9in /  1010.9hPa North 2.9mph /  4.7km/h 4.6mph /  7.4km/h 83% 0in /  0.0mm
03:14 76.3 °F /  24.6 °C 70.7 °F /  21.5 °C 29.9in /  1010.9hPa NNW 2.9mph /  4.7km/h 4.6mph /  7.4km/h 83% 0in /  0.0mm
03:19 76.3 °F /  24.6 °C 70.7 °F /  21.5 °C 29.9in /  1010.9hPa NW 2.4mph /  3.9km/h 4.7mph /  7.6km/h 83% 0in /  0.0mm
03:24 76.3 °F /  24.6 °C 70.7 °F /  21.5 °C 29.9in /  1010.9hPa NNW 2.4mph /  3.9km/h 4mph /  6.4km/h 83% 0in /  0.0mm
03:29 76.3 °F /  24.6 °C 70.7 °F /  21.5 °C 29.9in /  1010.9hPa NNW 2mph /  3.2km/h 4.6mph /  7.4km/h 83% 0in /  0.0mm
03:34 76.3 °F /  24.6 °C 70.7 °F /  21.5 °C 29.9in /  1010.8hPa NNW 2mph /  3.2km/h 4.6mph /  7.4km/h 83% 0in /  0.0mm
03:39 76.3 °F /  24.6 °C 70.7 °F /  21.5 °C 29.9in /  1010.8hPa NNW 2.9mph /  4.7km/h 3.1mph /  5.0km/h 83% 0in /  0.0mm
03:44 76.3 °F /  24.6 °C 70.7 °F /  21.5 °C 29.9in /  1010.8hPa NNW 2.9mph /  4.7km/h 4.6mph /  7.4km/h 83% 0in /  0.0mm
03:49 76.1 °F /  24.5 °C 70.5 °F /  21.4 °C 29.8in /  1010.7hPa NNW 2mph /  3.2km/h 2.4mph /  3.9km/h 83% 0in /  0.0mm
03:54 76.3 °F /  24.6 °C 70.7 °F /  21.5 °C 29.8in /  1010.7hPa NW 2mph /  3.2km/h 4.6mph /  7.4km/h 83% 0in /  0.0mm
03:59 76.1 °F /  24.5 °C 70.5 °F /  21.4 °C 29.8in /  1010.7hPa NW 2.4mph /  3.9km/h 4.6mph /  7.4km/h 83% 0in /  0.0mm
04:04 76.1 °F /  24.5 °C 70.9 °F /  21.6 °C 29.8in /  1010.7hPa NW 2.4mph /  3.9km/h 3.5mph /  5.6km/h 84% 0in /  0.0mm
04:09 75.9 °F /  24.4 °C 70.7 °F /  21.5 °C 29.8in /  1010.7hPa WNW 2.4mph /  3.9km/h 4.6mph /  7.4km/h 84% 0in /  0.0mm
04:14 75.9 °F /  24.4 °C 70.7 °F /  21.5 °C 29.8in /  1010.7hPa WNW 2.4mph /  3.9km/h 2.4mph /  3.9km/h 84% 0in /  0.0mm
04:19 75.9 °F /  24.4 °C 70.7 °F /  21.5 °C 29.8in /  1010.7hPa West 2.4mph /  3.9km/h 4.6mph /  7.4km/h 84% 0in /  0.0mm
04:24 75.9 °F /  24.4 °C 70.7 °F /  21.5 °C 29.8in /  1010.7hPa West 2.4mph /  3.9km/h 3.1mph /  5.0km/h 84% 0in /  0.0mm
04:29 75.9 °F /  24.4 °C 70.7 °F /  21.5 °C 29.8in /  1010.7hPa West 2.4mph /  3.9km/h 3.5mph /  5.6km/h 84% 0in /  0.0mm
04:34 75.9 °F /  24.4 °C 70.7 °F /  21.5 °C 29.9in /  1010.8hPa West 2.4mph /  3.9km/h 3.5mph /  5.6km/h 84% 0in /  0.0mm
04:39 75.9 °F /  24.4 °C 70.3 °F /  21.3 °C 29.9in /  1010.8hPa WNW 2mph /  3.2km/h 4.6mph /  7.4km/h 83% 0in /  0.0mm
04:44 75.9 °F /  24.4 °C 70.3 °F /  21.3 °C 29.9in /  1010.8hPa WNW 2mph /  3.2km/h 4.6mph /  7.4km/h 83% 0in /  0.0mm
04:49 75.9 °F /  24.4 °C 70.3 °F /  21.3 °C 29.9in /  1010.8hPa WNW 2mph /  3.2km/h   83% 0in /  0.0mm
04:54 75.9 °F /  24.4 °C 70.3 °F /  21.3 °C 29.9in /  1010.8hPa West 2mph /  3.2km/h 4.6mph /  7.4km/h 83% 0in /  0.0mm
04:59 75.9 °F /  24.4 °C 70.3 °F /  21.3 °C 29.9in /  1010.8hPa NW 1.8mph /  2.9km/h 3.5mph /  5.6km/h 83% 0in /  0.0mm
05:04 75.7 °F /  24.3 °C 70.2 °F /  21.2 °C 29.9in /  1010.8hPa NW 1.8mph /  2.9km/h 4.6mph /  7.4km/h 83% 0in /  0.0mm
05:09 75.7 °F /  24.3 °C 70.2 °F /  21.2 °C 29.9in /  1010.8hPa NW 2mph /  3.2km/h 2.9mph /  4.7km/h 83% 0in /  0.0mm
05:14 75.7 °F /  24.3 °C 70.2 °F /  21.2 °C 29.9in /  1010.8hPa NW 2mph /  3.2km/h 3.5mph /  5.6km/h 83% 0in /  0.0mm
05:19 75.6 °F /  24.2 °C 70 °F /  21.1 °C 29.9in /  1010.8hPa WNW 1.8mph /  2.9km/h 4.6mph /  7.4km/h 83% 0in /  0.0mm
05:24 75.6 °F /  24.2 °C 70.3 °F /  21.3 °C 29.9in /  1010.8hPa NW 1.8mph /  2.9km/h 3.1mph /  5.0km/h 84% 0in /  0.0mm
05:29 75.4 °F /  24.1 °C 70.2 °F /  21.2 °C 29.9in /  1010.8hPa NW 2.9mph /  4.7km/h 3.5mph /  5.6km/h 84% 0in /  0.0mm
05:34 75.4 °F /  24.1 °C 70.2 °F /  21.2 °C 29.9in /  1010.8hPa NW 2.9mph /  4.7km/h 4.6mph /  7.4km/h 84% 0in /  0.0mm
05:39 75.2 °F /  24.0 °C 70 °F /  21.1 °C 29.9in /  1010.8hPa NW 2.4mph /  3.9km/h 4.3mph /  6.9km/h 84% 0in /  0.0mm
05:44 75 °F /  23.9 °C 70 °F /  21.1 °C 29.9in /  1010.8hPa WNW 2.4mph /  3.9km/h 4.6mph /  7.4km/h 84% 0in /  0.0mm
05:49 75 °F /  23.9 °C 70 °F /  21.1 °C 29.9in /  1010.9hPa WNW 2.4mph /  3.9km/h 4.3mph /  6.9km/h 84% 0in /  0.0mm
05:54 75 °F /  23.9 °C 70 °F /  21.1 °C 29.9in /  1010.9hPa WNW 2.4mph /  3.9km/h 5.8mph /  9.3km/h 84% 0in /  0.0mm
05:59 74.8 °F /  23.8 °C 70 °F /  21.1 °C 29.9in /  1010.9hPa West 2.9mph /  4.7km/h 4.6mph /  7.4km/h 85% 0in /  0.0mm
06:04 74.7 °F /  23.7 °C 69.8 °F /  21.0 °C 29.9in /  1010.9hPa West 2.9mph /  4.7km/h 4.6mph /  7.4km/h 85% 0in /  0.0mm
06:09 74.7 °F /  23.7 °C 69.8 °F /  21.0 °C 29.9in /  1010.9hPa West 3.1mph /  5.0km/h 4.6mph /  7.4km/h 85% 0in /  0.0mm
06:14 74.5 °F /  23.6 °C 69.6 °F /  20.9 °C 29.9in /  1010.9hPa WNW 3.1mph /  5.0km/h 5.8mph /  9.3km/h 85% 0in /  0.0mm
06:19 74.5 °F /  23.6 °C 70 °F /  21.1 °C 29.9in /  1010.9hPa West 3.1mph /  5.0km/h 4.6mph /  7.4km/h 86% 0in /  0.0mm
06:24 74.5 °F /  23.6 °C 70 °F /  21.1 °C 29.9in /  1010.9hPa WNW 3.1mph /  5.0km/h 3.5mph /  5.6km/h 86% 0in /  0.0mm
06:29 74.5 °F /  23.6 °C 70 °F /  21.1 °C 29.9in /  1010.9hPa WNW 2.9mph /  4.7km/h 2mph /  3.2km/h 86% 0in /  0.0mm
06:34 74.5 °F /  23.6 °C 70 °F /  21.1 °C 29.9in /  1011.0hPa WNW 2.9mph /  4.7km/h 4.6mph /  7.4km/h 86% 0in /  0.0mm
06:39 74.3 °F /  23.5 °C 69.8 °F /  21.0 °C 29.9in /  1011.0hPa WNW 1.8mph /  2.9km/h 2.4mph /  3.9km/h 86% 0in /  0.0mm
06:44 74.3 °F /  23.5 °C 69.8 °F /  21.0 °C 29.9in /  1011.0hPa WNW 1.8mph /  2.9km/h 4.6mph /  7.4km/h 86% 0in /  0.0mm
06:49 74.1 °F /  23.4 °C 69.6 °F /  20.9 °C 29.9in /  1011.1hPa WNW 2.4mph /  3.9km/h 4.6mph /  7.4km/h 86% 0in /  0.0mm
06:54 74.1 °F /  23.4 °C 69.6 °F /  20.9 °C 29.9in /  1011.1hPa WNW 2.4mph /  3.9km/h 2.9mph /  4.7km/h 86% 0in /  0.0mm
06:59 74.1 °F /  23.4 °C 69.6 °F /  20.9 °C 29.9in /  1011.1hPa WNW 2mph /  3.2km/h   86% 0in /  0.0mm
07:04 74.1 °F /  23.4 °C 69.6 °F /  20.9 °C 29.9in /  1011.2hPa WNW 2mph /  3.2km/h   86% 0in /  0.0mm
07:09 74.3 °F /  23.5 °C 69.8 °F /  21.0 °C 29.9in /  1011.2hPa Calm     86% 0in /  0.0mm
07:14 74.3 °F /  23.5 °C 69.8 °F /  21.0 °C 29.9in /  1011.2hPa Calm     86% 0in /  0.0mm
07:19 74.3 °F /  23.5 °C 69.8 °F /  21.0 °C 29.9in /  1011.2hPa Calm     86% 0in /  0.0mm
07:24 74.5 °F /  23.6 °C 70 °F /  21.1 °C 29.9in /  1011.2hPa Calm     86% 0in /  0.0mm
07:29 74.3 °F /  23.5 °C 69.8 °F /  21.0 °C 29.9in /  1011.2hPa Calm   3.5mph /  5.6km/h 86% 0in /  0.0mm
07:34 74.5 °F /  23.6 °C 70 °F /  21.1 °C 29.9in /  1011.3hPa Calm   3.5mph /  5.6km/h 86% 0in /  0.0mm
07:39 74.5 °F /  23.6 °C 70 °F /  21.1 °C 29.9in /  1011.3hPa West 1.8mph /  2.9km/h 4.6mph /  7.4km/h 86% 0in /  0.0mm
07:44 74.5 °F /  23.6 °C 70 °F /  21.1 °C 29.9in /  1011.3hPa WNW 1.8mph /  2.9km/h 3.6mph /  5.8km/h 86% 0in /  0.0mm
07:49 74.5 °F /  23.6 °C 69.6 °F /  20.9 °C 29.9in /  1011.4hPa NW 2.4mph /  3.9km/h 4.6mph /  7.4km/h 85% 0in /  0.0mm
07:54 74.7 °F /  23.7 °C 69.8 °F /  21.0 °C 29.9in /  1011.4hPa West 2.4mph /  3.9km/h 4.6mph /  7.4km/h 85% 0in /  0.0mm
07:59 74.7 °F /  23.7 °C 69.8 °F /  21.0 °C 29.9in /  1011.4hPa WNW 2.9mph /  4.7km/h 3.5mph /  5.6km/h 85% 0in /  0.0mm
08:04 74.8 °F /  23.8 °C 70 °F /  21.1 °C 29.9in /  1011.4hPa WNW 2.9mph /  4.7km/h   85% 0in /  0.0mm
08:09 75 °F /  23.9 °C 70 °F /  21.1 °C 29.9in /  1011.4hPa WNW 1.4mph /  2.3km/h 2.3mph /  3.7km/h 84% 0in /  0.0mm
08:14 75.4 °F /  24.1 °C 70.2 °F /  21.2 °C 29.9in /  1011.4hPa West 1.4mph /  2.3km/h 3.5mph /  5.6km/h 84% 0in /  0.0mm
08:19 75.4 °F /  24.1 °C 70 °F /  21.1 °C 29.9in /  1011.5hPa WSW 1.8mph /  2.9km/h 5.8mph /  9.3km/h 83% 0in /  0.0mm FEW
08:24 75.6 °F /  24.2 °C 69.6 °F /  20.9 °C 29.9in /  1011.5hPa WSW 1.8mph /  2.9km/h 4.6mph /  7.4km/h 82% 0in /  0.0mm FEW
08:29 75.6 °F /  24.2 °C 69.6 °F /  20.9 °C 29.9in /  1011.5hPa WSW 3.1mph /  5.0km/h 4.6mph /  7.4km/h 82% 0in /  0.0mm FEW
08:34 75.6 °F /  24.2 °C 69.3 °F /  20.7 °C 29.9in /  1011.7hPa West 3.1mph /  5.0km/h 6.9mph /  11.1km/h 81% 0in /  0.0mm FEW
08:39 75.7 °F /  24.3 °C 69.1 °F /  20.6 °C 29.9in /  1011.7hPa West 3.1mph /  5.0km/h 4.6mph /  7.4km/h 80% 0in /  0.0mm FEW
08:44 75.7 °F /  24.3 °C 69.1 °F /  20.6 °C 29.9in /  1011.7hPa West 3.1mph /  5.0km/h 6.9mph /  11.1km/h 80% 0in /  0.0mm FEW
08:49 75.9 °F /  24.4 °C 69.3 °F /  20.7 °C 29.9in /  1011.8hPa West 3.6mph /  5.8km/h 4.6mph /  7.4km/h 80% 0in /  0.0mm FEW
08:54 76.1 °F /  24.5 °C 69.1 °F /  20.6 °C 29.9in /  1011.8hPa West 3.6mph /  5.8km/h 2.4mph /  3.9km/h 79% 0in /  0.0mm FEW
08:59 76.5 °F /  24.7 °C 69.4 °F /  20.8 °C 29.9in /  1011.8hPa SW 2.4mph /  3.9km/h 3.5mph /  5.6km/h 79% 0in /  0.0mm FEW
09:04 76.8 °F /  24.9 °C 69.8 °F /  21.0 °C 29.9in /  1011.9hPa South 2.4mph /  3.9km/h 4.6mph /  7.4km/h 79% 0in /  0.0mm FEW
09:09 77.2 °F /  25.1 °C 69.8 °F /  21.0 °C 29.9in /  1011.9hPa SSE 2mph /  3.2km/h 3.5mph /  5.6km/h 78% 0in /  0.0mm FEW
09:14 77.5 °F /  25.3 °C 69.8 °F /  21.0 °C 29.9in /  1011.9hPa East 2mph /  3.2km/h 3.5mph /  5.6km/h 77% 0in /  0.0mm FEW
09:19 77.7 °F /  25.4 °C 69.3 °F /  20.7 °C 29.9in /  1012.0hPa South 2mph /  3.2km/h 6.9mph /  11.1km/h 75% 0in /  0.0mm FEW
09:24 77.7 °F /  25.4 °C 69.3 °F /  20.7 °C 29.9in /  1012.0hPa WSW 2mph /  3.2km/h 4.7mph /  7.6km/h 75% 0in /  0.0mm FEW
09:29 77.9 °F /  25.5 °C 69.3 °F /  20.7 °C 29.9in /  1012.0hPa South 4mph /  6.4km/h 5.8mph /  9.3km/h 75% 0in /  0.0mm FEW
09:34 77.7 °F /  25.4 °C 69.3 °F /  20.7 °C 29.9in /  1012.3hPa South 4mph /  6.4km/h 8.1mph /  13.0km/h 75% 0in /  0.0mm FEW
09:39 77.5 °F /  25.3 °C 69.1 °F /  20.6 °C 29.9in /  1012.3hPa SSW 4.7mph /  7.6km/h 6.9mph /  11.1km/h 75% 0in /  0.0mm FEW
09:44 77.9 °F /  25.5 °C 69.3 °F /  20.7 °C 29.9in /  1012.3hPa SE 4.7mph /  7.6km/h 5.8mph /  9.3km/h 75% 0in /  0.0mm FEW
09:49 78.1 °F /  25.6 °C 69.1 °F /  20.6 °C 29.9in /  1012.2hPa SSE 4mph /  6.4km/h 6.9mph /  11.1km/h 74% 0in /  0.0mm FEW
09:54 78.1 °F /  25.6 °C 69.1 °F /  20.6 °C 29.9in /  1012.2hPa SSE 4mph /  6.4km/h 7.4mph /  11.9km/h 74% 0in /  0.0mm FEW
09:59 78.4 °F /  25.8 °C 69.1 °F /  20.6 °C 29.9in /  1012.2hPa South 5.4mph /  8.7km/h 5.8mph /  9.3km/h 73% 0in /  0.0mm FEW
10:04 79 °F /  26.1 °C 69.3 °F /  20.7 °C 29.9in /  1012.3hPa WSW 5.4mph /  8.7km/h 4.3mph /  6.9km/h 72% 0in /  0.0mm FEW
10:09 79.2 °F /  26.2 °C 68.9 °F /  20.5 °C 29.9in /  1012.3hPa South 3.1mph /  5.0km/h 5.8mph /  9.3km/h 71% 0in /  0.0mm FEW
10:14 79.3 °F /  26.3 °C 68.7 °F /  20.4 °C 29.9in /  1012.3hPa South 3.1mph /  5.0km/h 5.8mph /  9.3km/h 70% 0in /  0.0mm FEW
10:19 79.7 °F /  26.5 °C 68.5 °F /  20.3 °C 29.9in /  1012.3hPa West 3.6mph /  5.8km/h 9.2mph /  14.8km/h 69% 0in /  0.0mm
10:24 79.5 °F /  26.4 °C 68.5 °F /  20.3 °C 29.9in /  1012.3hPa West 3.6mph /  5.8km/h 4.6mph /  7.4km/h 69% 0in /  0.0mm
10:29 79.9 °F /  26.6 °C 68.7 °F /  20.4 °C 29.9in /  1012.3hPa SSW 4.3mph /  6.9km/h 4.6mph /  7.4km/h 69% 0in /  0.0mm
10:34 80.2 °F /  26.8 °C 68.7 °F /  20.4 °C 29.9in /  1012.2hPa West 4.3mph /  6.9km/h 5.8mph /  9.3km/h 68% 0in /  0.0mm
10:39 80.2 °F /  26.8 °C 68.4 °F /  20.2 °C 29.9in /  1012.2hPa WSW 3.1mph /  5.0km/h 4.6mph /  7.4km/h 67% 0in /  0.0mm
10:44 80.4 °F /  26.9 °C 68 °F /  20.0 °C 29.9in /  1012.2hPa NNW 3.1mph /  5.0km/h 3.5mph /  5.6km/h 66% 0in /  0.0mm
10:49 81 °F /  27.2 °C 68.5 °F /  20.3 °C 29.9in /  1012.1hPa WNW 3.6mph /  5.8km/h 5.8mph /  9.3km/h 66% 0in /  0.0mm
10:54 81.3 °F /  27.4 °C 68.4 °F /  20.2 °C 29.9in /  1012.1hPa NNW 3.6mph /  5.8km/h 4.6mph /  7.4km/h 65% 0in /  0.0mm
10:59 82 °F /  27.8 °C 68.2 °F /  20.1 °C 29.9in /  1012.1hPa West 2.9mph /  4.7km/h 5.2mph /  8.4km/h 63% 0in /  0.0mm
11:04 82.6 °F /  28.1 °C 68.2 °F /  20.1 °C 29.9in /  1012.2hPa ESE 2.9mph /  4.7km/h 5.8mph /  9.3km/h 62% 0in /  0.0mm
11:09 82.9 °F /  28.3 °C 67.1 °F /  19.5 °C 29.9in /  1012.2hPa SSW 2.4mph /  3.9km/h 5.8mph /  9.3km/h 59% 0in /  0.0mm
11:14 82.9 °F /  28.3 °C 67.1 °F /  19.5 °C 29.9in /  1012.2hPa SE 2.4mph /  3.9km/h 4.6mph /  7.4km/h 59% 0in /  0.0mm
11:19 83.3 °F /  28.5 °C 66.9 °F /  19.4 °C 29.9in /  1012.1hPa South 3.6mph /  5.8km/h 4.6mph /  7.4km/h 58% 0in /  0.0mm
11:24 83.7 °F /  28.7 °C 66.4 °F /  19.1 °C 29.9in /  1012.1hPa ESE 3.6mph /  5.8km/h 5.8mph /  9.3km/h 56% 0in /  0.0mm
11:29 83.7 °F /  28.7 °C 66.4 °F /  19.1 °C 29.9in /  1012.1hPa NE 3.6mph /  5.8km/h 4.6mph /  7.4km/h 56% 0in /  0.0mm
11:34 84.2 °F /  29.0 °C 66.7 °F /  19.3 °C 29.9in /  1012.0hPa NNE 3.6mph /  5.8km/h 4.6mph /  7.4km/h 56% 0in /  0.0mm
11:39 84.6 °F /  29.2 °C 66 °F /  18.9 °C 29.9in /  1012.0hPa WNW 3.1mph /  5.0km/h 2.4mph /  3.9km/h 54% 0in /  0.0mm
11:44 84.9 °F /  29.4 °C 66.4 °F /  19.1 °C 29.9in /  1012.0hPa NNE 3.1mph /  5.0km/h 4.6mph /  7.4km/h 54% 0in /  0.0mm
11:49 85.3 °F /  29.6 °C 66.2 °F /  19.0 °C 29.9in /  1012.0hPa NW 2mph /  3.2km/h 4.6mph /  7.4km/h 53% 0in /  0.0mm
11:54 85.5 °F /  29.7 °C 65.3 °F /  18.5 °C 29.9in /  1012.0hPa SE 2mph /  3.2km/h 7.4mph /  11.9km/h 51% 0in /  0.0mm
11:59 85.6 °F /  29.8 °C 64.9 °F /  18.3 °C 29.9in /  1012.0hPa ESE 2.4mph /  3.9km/h 2.3mph /  3.7km/h 50% 0in /  0.0mm
12:04 85.8 °F /  29.9 °C 64.9 °F /  18.3 °C 29.9in /  1012.0hPa ESE 2.4mph /  3.9km/h 1.2mph /  1.9km/h 50% 0in /  0.0mm
12:09 86.7 °F /  30.4 °C 64.8 °F /  18.2 °C 29.9in /  1011.9hPa ESE 2mph /  3.2km/h 4.7mph /  7.6km/h 48% 0in /  0.0mm
12:14 86.9 °F /  30.5 °C 64.8 °F /  18.2 °C 29.9in /  1011.9hPa SE 2mph /  3.2km/h 5.8mph /  9.3km/h 48% 0in /  0.0mm
12:19 87.1 °F /  30.6 °C 64.4 °F /  18.0 °C 29.9in /  1011.9hPa NE 3.6mph /  5.8km/h 2.3mph /  3.7km/h 47% 0in /  0.0mm
12:24 87.3 °F /  30.7 °C 64 °F /  17.8 °C 29.9in /  1011.9hPa SE 3.6mph /  5.8km/h 6.9mph /  11.1km/h 46% 0in /  0.0mm
12:29 87.4 °F /  30.8 °C 64.8 °F /  18.2 °C 29.9in /  1011.9hPa South 3.6mph /  5.8km/h 6.9mph /  11.1km/h 47% 0in /  0.0mm
12:34 87.4 °F /  30.8 °C 64.8 °F /  18.2 °C 29.9in /  1011.8hPa West 3.6mph /  5.8km/h 6.9mph /  11.1km/h 47% 0in /  0.0mm
12:39 87.4 °F /  30.8 °C 64.8 °F /  18.2 °C 29.9in /  1011.8hPa West 3.1mph /  5.0km/h 4.6mph /  7.4km/h 47% 0in /  0.0mm
12:44 88 °F /  31.1 °C 64 °F /  17.8 °C 29.9in /  1011.8hPa NNE 3.1mph /  5.0km/h 4.7mph /  7.6km/h 45% 0in /  0.0mm
12:49 88 °F /  31.1 °C 62.8 °F /  17.1 °C 29.9in /  1011.6hPa NNE 2.9mph /  4.7km/h 9.2mph /  14.8km/h 43% 0in /  0.0mm
12:54 88.2 °F /  31.2 °C 62.2 °F /  16.8 °C 29.9in /  1011.6hPa East 2.9mph /  4.7km/h 6.9mph /  11.1km/h 42% 0in /  0.0mm
12:59 88.3 °F /  31.3 °C 62.2 °F /  16.8 °C 29.9in /  1011.6hPa SSW 4.7mph /  7.6km/h 5.8mph /  9.3km/h 42% 0in /  0.0mm
13:04 88.3 °F /  31.3 °C 62.2 °F /  16.8 °C 29.9in /  1011.5hPa East 4.7mph /  7.6km/h 5.8mph /  9.3km/h 42% 0in /  0.0mm
13:09 88.7 °F /  31.5 °C 61.3 °F /  16.3 °C 29.9in /  1011.5hPa North 2.9mph /  4.7km/h 5.8mph /  9.3km/h 40% 0in /  0.0mm
13:14 88.9 °F /  31.6 °C 61.3 °F /  16.3 °C 29.9in /  1011.5hPa NE 2.9mph /  4.7km/h 6.9mph /  11.1km/h 40% 0in /  0.0mm
13:19 89.1 °F /  31.7 °C 61.5 °F /  16.4 °C 29.9in /  1011.4hPa ESE 4.7mph /  7.6km/h 6.9mph /  11.1km/h 40% 0in /  0.0mm
13:24 89.2 °F /  31.8 °C 61.9 °F /  16.6 °C 29.9in /  1011.4hPa NNE 4.7mph /  7.6km/h 4.7mph /  7.6km/h 40% 0in /  0.0mm
13:29 89.4 °F /  31.9 °C 62.6 °F /  17.0 °C 29.9in /  1011.4hPa NNE 3.6mph /  5.8km/h 6.9mph /  11.1km/h 41% 0in /  0.0mm
13:34 89.6 °F /  32.0 °C 62.1 °F /  16.7 °C 29.9in /  1011.1hPa ENE 3.6mph /  5.8km/h 12.7mph /  20.4km/h 40% 0in /  0.0mm
13:39 89.8 °F /  32.1 °C 62.2 °F /  16.8 °C 29.9in /  1011.1hPa NE 5.9mph /  9.5km/h 8.1mph /  13.0km/h 40% 0in /  0.0mm
13:44 90.1 °F /  32.3 °C 61.9 °F /  16.6 °C 29.9in /  1011.1hPa NE 5.9mph /  9.5km/h 8.1mph /  13.0km/h 39% 0in /  0.0mm
13:49 90.5 °F /  32.5 °C 61.3 °F /  16.3 °C 29.9in /  1011.0hPa ENE 4.7mph /  7.6km/h 10.4mph /  16.7km/h 38% 0in /  0.0mm
13:54 90.7 °F /  32.6 °C 60.8 °F /  16.0 °C 29.9in /  1011.0hPa NNE 4.7mph /  7.6km/h 9.2mph /  14.8km/h 37% 0in /  0.0mm
13:59 90.5 °F /  32.5 °C 60.6 °F /  15.9 °C 29.9in /  1011.0hPa NNE 5.9mph /  9.5km/h 6.9mph /  11.1km/h 37% 0in /  0.0mm
14:04 90.9 °F /  32.7 °C 61 °F /  16.1 °C 29.9in /  1010.9hPa NNW 5.9mph /  9.5km/h 8.1mph /  13.0km/h 37% 0in /  0.0mm
14:09 91.6 °F /  33.1 °C 61 °F /  16.1 °C 29.9in /  1010.9hPa NE 5.9mph /  9.5km/h 9.2mph /  14.8km/h 36% 0in /  0.0mm
14:14 92.3 °F /  33.5 °C 61.5 °F /  16.4 °C 29.9in /  1010.9hPa ENE 5.9mph /  9.5km/h 8.1mph /  13.0km/h 36% 0in /  0.0mm
14:19 92.3 °F /  33.5 °C 60.6 °F /  15.9 °C 29.9in /  1010.8hPa NE 4.7mph /  7.6km/h 5.8mph /  9.3km/h 35% 0in /  0.0mm CLR
14:24 92.3 °F /  33.5 °C 61.5 °F /  16.4 °C 29.9in /  1010.8hPa East 4.7mph /  7.6km/h 12.7mph /  20.4km/h 36% 0in /  0.0mm CLR
14:29 92.5 °F /  33.6 °C 63.9 °F /  17.7 °C 29.9in /  1010.8hPa ENE 5.2mph /  8.4km/h 7.6mph /  12.2km/h 39% 0in /  0.0mm CLR
14:34 92.5 °F /  33.6 °C 66.7 °F /  19.3 °C 29.8in /  1010.7hPa SE 5.2mph /  8.4km/h 11.5mph /  18.5km/h 43% 0in /  0.0mm CLR
14:39 91.9 °F /  33.3 °C 68.7 °F /  20.4 °C 29.8in /  1010.7hPa SE 5.9mph /  9.5km/h 12.7mph /  20.4km/h 47% 0in /  0.0mm CLR
14:44 91.6 °F /  33.1 °C 69.1 °F /  20.6 °C 29.8in /  1010.7hPa ESE 5.9mph /  9.5km/h 12.7mph /  20.4km/h 48% 0in /  0.0mm CLR
14:49 91.9 °F /  33.3 °C 68.7 °F /  20.4 °C 29.8in /  1010.5hPa ESE 8.7mph /  14.0km/h 13.8mph /  22.2km/h 47% 0in /  0.0mm CLR
14:54 91.2 °F /  32.9 °C 68.7 °F /  20.4 °C 29.8in /  1010.5hPa East 8.7mph /  14.0km/h 12.7mph /  20.4km/h 48% 0in /  0.0mm CLR
14:59 91 °F /  32.8 °C 68.5 °F /  20.3 °C 29.8in /  1010.5hPa South 8.1mph /  13.0km/h 11.5mph /  18.5km/h 48% 0in /  0.0mm CLR
15:04 91.2 °F /  32.9 °C 68.2 °F /  20.1 °C 29.8in /  1010.3hPa ENE 8.1mph /  13.0km/h 12.7mph /  20.4km/h 47% 0in /  0.0mm CLR
15:09 91.4 °F /  33.0 °C 68.4 °F /  20.2 °C 29.8in /  1010.3hPa SSE 8.1mph /  13.0km/h 11.5mph /  18.5km/h 47% 0in /  0.0mm CLR
15:14 91.4 °F /  33.0 °C 67.6 °F /  19.8 °C 29.8in /  1010.3hPa SSE 8.1mph /  13.0km/h 13.8mph /  22.2km/h 46% 0in /  0.0mm CLR
15:19 91.2 °F /  32.9 °C 68.2 °F /  20.1 °C 29.8in /  1010.3hPa SE 7.6mph /  12.2km/h 11.4mph /  18.3km/h 47% 0in /  0.0mm CLR
15:24 91.6 °F /  33.1 °C 67.8 °F /  19.9 °C 29.8in /  1010.3hPa SSE 7.6mph /  12.2km/h 15mph /  24.1km/h 46% 0in /  0.0mm CLR
15:29 91.8 °F /  33.2 °C 68 °F /  20.0 °C 29.8in /  1010.3hPa ENE 7.6mph /  12.2km/h 12.7mph /  20.4km/h 46% 0in /  0.0mm CLR
15:34 91.6 °F /  33.1 °C 67.8 °F /  19.9 °C 29.8in /  1010.2hPa SE 7.6mph /  12.2km/h 13.8mph /  22.2km/h 46% 0in /  0.0mm CLR
15:39 91.4 °F /  33.0 °C 68.4 °F /  20.2 °C 29.8in /  1010.2hPa ESE 9.2mph /  14.8km/h 19.6mph /  31.5km/h 47% 0in /  0.0mm CLR
15:44 91 °F /  32.8 °C 68.5 °F /  20.3 °C 29.8in /  1010.2hPa SE 9.2mph /  14.8km/h 13.8mph /  22.2km/h 48% 0in /  0.0mm CLR
15:49 91.2 °F /  32.9 °C 67.5 °F /  19.7 °C 29.8in /  1010.2hPa SE 11.4mph /  18.3km/h 17.3mph /  27.8km/h 46% 0in /  0.0mm CLR
15:54 91.4 °F /  33.0 °C 67.6 °F /  19.8 °C 29.8in /  1010.2hPa SE 11.4mph /  18.3km/h 13.8mph /  22.2km/h 46% 0in /  0.0mm CLR
15:59 91 °F /  32.8 °C 67.5 °F /  19.7 °C 29.8in /  1010.2hPa SE 9.7mph /  15.6km/h 16.1mph /  25.9km/h 46% 0in /  0.0mm CLR
16:04 91 °F /  32.8 °C 67.5 °F /  19.7 °C 29.8in /  1010.3hPa SSE 9.7mph /  15.6km/h 20.7mph /  33.3km/h 46% 0in /  0.0mm CLR
16:09 90.9 °F /  32.7 °C 67.3 °F /  19.6 °C 29.8in /  1010.3hPa SE 10mph /  16.1km/h 13.8mph /  22.2km/h 46% 0in /  0.0mm CLR
16:14 91 °F /  32.8 °C 67.5 °F /  19.7 °C 29.8in /  1010.3hPa East 10mph /  16.1km/h 16.1mph /  25.9km/h 46% 0in /  0.0mm CLR
16:19 90.7 °F /  32.6 °C 67.1 °F /  19.5 °C 29.8in /  1010.2hPa SE 10.2mph /  16.4km/h 16.1mph /  25.9km/h 46% 0in /  0.0mm CLR
16:24 91 °F /  32.8 °C 67.5 °F /  19.7 °C 29.8in /  1010.2hPa ESE 10.2mph /  16.4km/h 13.8mph /  22.2km/h 46% 0in /  0.0mm CLR
16:29 91.6 °F /  33.1 °C 67.8 °F /  19.9 °C 29.8in /  1010.2hPa East 10mph /  16.1km/h 13.8mph /  22.2km/h 46% 0in /  0.0mm CLR
16:34 91.4 °F /  33.0 °C 67.1 °F /  19.5 °C 29.8in /  1010.1hPa SE 10mph /  16.1km/h 10.4mph /  16.7km/h 45% 0in /  0.0mm CLR
16:39 91.2 °F /  32.9 °C 66.9 °F /  19.4 °C 29.8in /  1010.1hPa ENE 8.7mph /  14.0km/h 11.5mph /  18.5km/h 45% 0in /  0.0mm CLR
16:44 91.2 °F /  32.9 °C 66.9 °F /  19.4 °C 29.8in /  1010.1hPa SE 8.7mph /  14.0km/h 13.8mph /  22.2km/h 45% 0in /  0.0mm CLR
16:49 91.2 °F /  32.9 °C 66.9 °F /  19.4 °C 29.8in /  1009.9hPa SE 9.7mph /  15.6km/h 13mph /  20.9km/h 45% 0in /  0.0mm CLR
16:54 91 °F /  32.8 °C 66.7 °F /  19.3 °C 29.8in /  1009.9hPa SE 9.7mph /  15.6km/h 13.8mph /  22.2km/h 45% 0in /  0.0mm CLR
16:59 91.4 °F /  33.0 °C 66.4 °F /  19.1 °C 29.8in /  1009.9hPa East 9.2mph /  14.8km/h 10.4mph /  16.7km/h 44% 0in /  0.0mm CLR
17:04 91.6 °F /  33.1 °C 66.6 °F /  19.2 °C 29.8in /  1009.9hPa ESE 9.2mph /  14.8km/h 12.7mph /  20.4km/h 44% 0in /  0.0mm CLR
17:09 91.8 °F /  33.2 °C 66.7 °F /  19.3 °C 29.8in /  1009.9hPa East 7.6mph /  12.2km/h 12.7mph /  20.4km/h 44% 0in /  0.0mm CLR
17:14 91.4 °F /  33.0 °C 66.4 °F /  19.1 °C 29.8in /  1009.9hPa SE 7.6mph /  12.2km/h 17.3mph /  27.8km/h 44% 0in /  0.0mm CLR
17:19 91 °F /  32.8 °C 65.5 °F /  18.6 °C 29.8in /  1010.0hPa ESE 8.5mph /  13.7km/h 12.3mph /  19.8km/h 43% 0in /  0.0mm
17:24 91.2 °F /  32.9 °C 66.4 °F /  19.1 °C 29.8in /  1010.0hPa ESE 8.5mph /  13.7km/h 9.2mph /  14.8km/h 44% 0in /  0.0mm
17:29 91.2 °F /  32.9 °C 66.9 °F /  19.4 °C 29.8in /  1010.0hPa ESE 7.4mph /  11.9km/h 12.7mph /  20.4km/h 45% 0in /  0.0mm
17:34 90.9 °F /  32.7 °C 66.6 °F /  19.2 °C 29.8in /  1010.1hPa East 7.4mph /  11.9km/h 12.7mph /  20.4km/h 45% 0in /  0.0mm
17:39 90.3 °F /  32.4 °C 67.5 °F /  19.7 °C 29.8in /  1010.1hPa ENE 8.5mph /  13.7km/h 15mph /  24.1km/h 47% 0in /  0.0mm
17:44 90.3 °F /  32.4 °C 68 °F /  20.0 °C 29.8in /  1010.1hPa NE 8.5mph /  13.7km/h 13.8mph /  22.2km/h 48% 0in /  0.0mm
17:49 90.1 °F /  32.3 °C 67.8 °F /  19.9 °C 29.8in /  1009.9hPa ENE 8.7mph /  14.0km/h 18.4mph /  29.6km/h 48% 0in /  0.0mm
17:54 89.8 °F /  32.1 °C 68.2 °F /  20.1 °C 29.8in /  1009.9hPa ENE 8.7mph /  14.0km/h 15mph /  24.1km/h 49% 0in /  0.0mm
17:59 89.2 °F /  31.8 °C 68.2 °F /  20.1 °C 29.8in /  1009.9hPa NNE 10mph /  16.1km/h 18.4mph /  29.6km/h 50% 0in /  0.0mm
18:04 88.7 °F /  31.5 °C 68.2 °F /  20.1 °C 29.8in /  1009.9hPa NNE 10mph /  16.1km/h 15mph /  24.1km/h 51% 0in /  0.0mm
18:09 88.5 °F /  31.4 °C 68.5 °F /  20.3 °C 29.8in /  1009.9hPa NE 10.7mph /  17.2km/h 17.3mph /  27.8km/h 52% 0in /  0.0mm
18:14 88.5 °F /  31.4 °C 68.5 °F /  20.3 °C 29.8in /  1009.9hPa NE 10.7mph /  17.2km/h 19.6mph /  31.5km/h 52% 0in /  0.0mm
18:19 88.3 °F /  31.3 °C 68.5 °F /  20.3 °C 29.8in /  1010.0hPa ENE 11.2mph /  18.0km/h 15mph /  24.1km/h 52% 0in /  0.0mm
18:24 88 °F /  31.1 °C 68.2 °F /  20.1 °C 29.8in /  1010.0hPa NE 11.2mph /  18.0km/h 19.6mph /  31.5km/h 52% 0in /  0.0mm
18:29 88 °F /  31.1 °C 68.2 °F /  20.1 °C 29.8in /  1010.0hPa NE 10.2mph /  16.4km/h 18.4mph /  29.6km/h 52% 0in /  0.0mm
18:34 88 °F /  31.1 °C 68.7 °F /  20.4 °C 29.8in /  1010.0hPa NE 10.2mph /  16.4km/h 11.5mph /  18.5km/h 53% 0in /  0.0mm
18:39 88 °F /  31.1 °C 69.3 °F /  20.7 °C 29.8in /  1010.0hPa ENE 10mph /  16.1km/h 15mph /  24.1km/h 54% 0in /  0.0mm
18:44 87.3 °F /  30.7 °C 69.1 °F /  20.6 °C 29.8in /  1010.0hPa ENE 10mph /  16.1km/h 20.7mph /  33.3km/h 55% 0in /  0.0mm
18:49 87.1 °F /  30.6 °C 69.1 °F /  20.6 °C 29.8in /  1010.0hPa NE 10.7mph /  17.2km/h 13.5mph /  21.7km/h 55% 0in /  0.0mm
18:54 86.9 °F /  30.5 °C 69.3 °F /  20.7 °C 29.8in /  1010.0hPa ENE 10.7mph /  17.2km/h 17.3mph /  27.8km/h 56% 0in /  0.0mm
18:59 86.5 °F /  30.3 °C 69.4 °F /  20.8 °C 29.8in /  1010.0hPa NNE 11.2mph /  18.0km/h 18.4mph /  29.6km/h 57% 0in /  0.0mm
19:04 86 °F /  30.0 °C 69.4 °F /  20.8 °C 29.8in /  1010.1hPa NNE 11.2mph /  18.0km/h 20.7mph /  33.3km/h 58% 0in /  0.0mm
19:09 85.6 °F /  29.8 °C 69.3 °F /  20.7 °C 29.8in /  1010.1hPa NE 13mph /  20.9km/h 21.9mph /  35.2km/h 58% 0in /  0.0mm
19:14 85.8 °F /  29.9 °C 69.3 °F /  20.7 °C 29.8in /  1010.1hPa NNE 13mph /  20.9km/h 17.3mph /  27.8km/h 58% 0in /  0.0mm
19:19 85.6 °F /  29.8 °C 69.3 °F /  20.7 °C 29.8in /  1010.2hPa NE 11.8mph /  19.0km/h 15mph /  24.1km/h 58% 0in /  0.0mm
19:24 85.5 °F /  29.7 °C 69.4 °F /  20.8 °C 29.8in /  1010.2hPa NE 11.8mph /  19.0km/h 16.1mph /  25.9km/h 59% 0in /  0.0mm
19:29 85.5 °F /  29.7 °C 69.1 °F /  20.6 °C 29.8in /  1010.2hPa NE 11.2mph /  18.0km/h 19mph /  30.6km/h 58% 0in /  0.0mm
19:34 84.9 °F /  29.4 °C 69.1 °F /  20.6 °C 29.8in /  1010.3hPa NE 11.2mph /  18.0km/h 18.4mph /  29.6km/h 59% 0in /  0.0mm
19:39 84.7 °F /  29.3 °C 69.3 °F /  20.7 °C 29.8in /  1010.3hPa NNE 12.5mph /  20.1km/h 16.1mph /  25.9km/h 60% 0in /  0.0mm
19:44 84.7 °F /  29.3 °C 69.3 °F /  20.7 °C 29.8in /  1010.3hPa East 12.5mph /  20.1km/h 12.7mph /  20.4km/h 60% 0in /  0.0mm
19:49 84.6 °F /  29.2 °C 69.1 °F /  20.6 °C 29.8in /  1010.4hPa NE 10.2mph /  16.4km/h 18.4mph /  29.6km/h 60% 0in /  0.0mm CLR
19:54 84.6 °F /  29.2 °C 69.1 °F /  20.6 °C 29.8in /  1010.4hPa NE 10.2mph /  16.4km/h 15mph /  24.1km/h 60% 0in /  0.0mm CLR
19:59 84.4 °F /  29.1 °C 69.1 °F /  20.6 °C 29.8in /  1010.4hPa NE 10.2mph /  16.4km/h 16.1mph /  25.9km/h 60% 0in /  0.0mm CLR
20:04 84 °F /  28.9 °C 68.5 °F /  20.3 °C 29.8in /  1010.6hPa NE 10.2mph /  16.4km/h 17.3mph /  27.8km/h 60% 0in /  0.0mm CLR
20:09 84 °F /  28.9 °C 68.5 °F /  20.3 °C 29.8in /  1010.6hPa NE 10.2mph /  16.4km/h 17.3mph /  27.8km/h 60% 0in /  0.0mm CLR
20:14 83.8 °F /  28.8 °C 69.1 °F /  20.6 °C 29.8in /  1010.6hPa NE 10.2mph /  16.4km/h 18.4mph /  29.6km/h 61% 0in /  0.0mm CLR
20:19 83.8 °F /  28.8 °C 69.4 °F /  20.8 °C 29.9in /  1010.8hPa NNE 10.7mph /  17.2km/h 12.7mph /  20.4km/h 62% 0in /  0.0mm CLR
20:24 83.8 °F /  28.8 °C 69.4 °F /  20.8 °C 29.9in /  1010.8hPa North 10.7mph /  17.2km/h 12.7mph /  20.4km/h 62% 0in /  0.0mm CLR
20:29 83.7 °F /  28.7 °C 69.3 °F /  20.7 °C 29.9in /  1010.8hPa ENE 8.7mph /  14.0km/h 15mph /  24.1km/h 62% 0in /  0.0mm CLR
20:34 83.5 °F /  28.6 °C 69.6 °F /  20.9 °C 29.9in /  1010.9hPa NE 8.7mph /  14.0km/h 15mph /  24.1km/h 63% 0in /  0.0mm CLR
20:39 83.5 °F /  28.6 °C 69.6 °F /  20.9 °C 29.9in /  1010.9hPa NE 8.7mph /  14.0km/h 12.7mph /  20.4km/h 63% 0in /  0.0mm CLR
20:44 83.1 °F /  28.4 °C 69.6 °F /  20.9 °C 29.9in /  1010.9hPa NE 8.7mph /  14.0km/h 13.8mph /  22.2km/h 64% 0in /  0.0mm CLR
20:49 82.9 °F /  28.3 °C 69.4 °F /  20.8 °C 29.9in /  1011.1hPa North 8.5mph /  13.7km/h 17.3mph /  27.8km/h 64% 0in /  0.0mm CLR
20:54 82.6 °F /  28.1 °C 69.6 °F /  20.9 °C 29.9in /  1011.1hPa NE 8.5mph /  13.7km/h 11.5mph /  18.5km/h 65% 0in /  0.0mm CLR
20:59 82.4 °F /  28.0 °C 69.4 °F /  20.8 °C 29.9in /  1011.1hPa NNE 10mph /  16.1km/h 15mph /  24.1km/h 65% 0in /  0.0mm CLR
21:04 82.2 °F /  27.9 °C 69.6 °F /  20.9 °C 29.9in /  1011.1hPa NE 10mph /  16.1km/h 12.7mph /  20.4km/h 66% 0in /  0.0mm
21:09 82.2 °F /  27.9 °C 69.6 °F /  20.9 °C 29.9in /  1011.1hPa NE 8.7mph /  14.0km/h 10.4mph /  16.7km/h 66% 0in /  0.0mm
21:14 82 °F /  27.8 °C 69.6 °F /  20.9 °C 29.9in /  1011.1hPa NE 8.7mph /  14.0km/h 11.5mph /  18.5km/h 66% 0in /  0.0mm
21:19 81.9 °F /  27.7 °C 69.4 °F /  20.8 °C 29.9in /  1011.3hPa East 5.9mph /  9.5km/h 8.5mph /  13.7km/h 66% 0in /  0.0mm
21:24 81.7 °F /  27.6 °C 69.3 °F /  20.7 °C 29.9in /  1011.3hPa ENE 5.9mph /  9.5km/h 9.2mph /  14.8km/h 66% 0in /  0.0mm
21:29 81.3 °F /  27.4 °C 68.9 °F /  20.5 °C 29.9in /  1011.3hPa ENE 5.4mph /  8.7km/h 11.5mph /  18.5km/h 66% 0in /  0.0mm
21:34 81.1 °F /  27.3 °C 69.1 °F /  20.6 °C 29.9in /  1011.4hPa NE 5.4mph /  8.7km/h 10.7mph /  17.2km/h 67% 0in /  0.0mm
21:39 81 °F /  27.2 °C 69.1 °F /  20.6 °C 29.9in /  1011.4hPa ENE 6.4mph /  10.3km/h 9.2mph /  14.8km/h 67% 0in /  0.0mm
21:44 81 °F /  27.2 °C 69.1 °F /  20.6 °C 29.9in /  1011.4hPa NE 6.4mph /  10.3km/h 11.5mph /  18.5km/h 67% 0in /  0.0mm
21:49 80.6 °F /  27.0 °C 69.1 °F /  20.6 °C 29.9in /  1011.6hPa ENE 5.9mph /  9.5km/h 10.7mph /  17.2km/h 68% 0in /  0.0mm
21:54 80.4 °F /  26.9 °C 68.9 °F /  20.5 °C 29.9in /  1011.6hPa NNE 5.9mph /  9.5km/h 8.1mph /  13.0km/h 68% 0in /  0.0mm
21:59 80.2 °F /  26.8 °C 69.1 °F /  20.6 °C 29.9in /  1011.6hPa NE 6.2mph /  10.0km/h 9.2mph /  14.8km/h 69% 0in /  0.0mm CLR
22:04 80.2 °F /  26.8 °C 69.1 °F /  20.6 °C 29.9in /  1011.9hPa ENE 6.2mph /  10.0km/h 10.4mph /  16.7km/h 69% 0in /  0.0mm CLR
22:09 80.1 °F /  26.7 °C 69.4 °F /  20.8 °C 29.9in /  1011.9hPa NE 6.9mph /  11.1km/h 10.4mph /  16.7km/h 70% 0in /  0.0mm CLR
22:14 80.1 °F /  26.7 °C 69.4 °F /  20.8 °C 29.9in /  1011.9hPa ENE 6.9mph /  11.1km/h 8.1mph /  13.0km/h 70% 0in /  0.0mm CLR
22:19 79.9 °F /  26.6 °C 69.3 °F /  20.7 °C 29.9in /  1012.2hPa NE 6.4mph /  10.3km/h 8.5mph /  13.7km/h 70% 0in /  0.0mm CLR
22:24 79.7 °F /  26.5 °C 69.1 °F /  20.6 °C 29.9in /  1012.2hPa NNE 6.4mph /  10.3km/h 11.5mph /  18.5km/h 70% 0in /  0.0mm CLR
22:28 79.7 °F /  26.5 °C 69.4 °F /  20.8 °C 29.9in /  1012.2hPa ENE 6.9mph /  11.1km/h 9.2mph /  14.8km/h 71% 0in /  0.0mm CLR
22:34 79.5 °F /  26.4 °C 69.3 °F /  20.7 °C 29.9in /  1012.6hPa ENE 6.9mph /  11.1km/h 5.9mph /  9.5km/h 71% 0in /  0.0mm CLR
22:38 79.3 °F /  26.3 °C 69.1 °F /  20.6 °C 29.9in /  1012.6hPa NE 5.9mph /  9.5km/h 11.5mph /  18.5km/h 71% 0in /  0.0mm CLR
22:39 79.3 °F /  26.3 °C 69.1 °F /  20.6 °C 29.9in /  1012.6hPa NNE 5.9mph /  9.5km/h 9.2mph /  14.8km/h 71% 0in /  0.0mm CLR
22:44 79.5 °F /  26.4 °C 69.3 °F /  20.7 °C 29.9in /  1012.6hPa NE 5.9mph /  9.5km/h 6.9mph /  11.1km/h 71% 0in /  0.0mm CLR
22:47 79.3 °F /  26.3 °C 69.4 °F /  20.8 °C 29.9in /  1012.9hPa NE 5.9mph /  9.5km/h 9.2mph /  14.8km/h 72% 0in /  0.0mm CLR
22:49 79.3 °F /  26.3 °C 69.4 °F /  20.8 °C 29.9in /  1012.9hPa NE 5.9mph /  9.5km/h 8.1mph /  13.0km/h 72% 0in /  0.0mm CLR
22:54 79.3 °F /  26.3 °C 69.4 °F /  20.8 °C 29.9in /  1012.9hPa ENE 5.9mph /  9.5km/h 4.6mph /  7.4km/h 72% 0in /  0.0mm CLR
22:59 79.2 °F /  26.2 °C 69.4 °F /  20.8 °C 29.9in /  1012.9hPa ESE 5.2mph /  8.4km/h 4.6mph /  7.4km/h 72% 0in /  0.0mm CLR
23:04 79.2 °F /  26.2 °C 69.4 °F /  20.8 °C 29.9in /  1013.3hPa NE 5.2mph /  8.4km/h 8.1mph /  13.0km/h 72% 0in /  0.0mm CLR
23:09 79 °F /  26.1 °C 69.6 °F /  20.9 °C 29.9in /  1013.3hPa ENE 3.6mph /  5.8km/h 6.9mph /  11.1km/h 73% 0in /  0.0mm CLR
23:14 79 °F /  26.1 °C 69.6 °F /  20.9 °C 29.9in /  1013.3hPa East 3.6mph /  5.8km/h 4.6mph /  7.4km/h 73% 0in /  0.0mm CLR
23:19 79 °F /  26.1 °C 69.6 °F /  20.9 °C 29.9in /  1013.3hPa NE 4mph /  6.4km/h 4.6mph /  7.4km/h 73% 0in /  0.0mm CLR
23:24 78.8 °F /  26.0 °C 69.4 °F /  20.8 °C 29.9in /  1013.3hPa NNE 4mph /  6.4km/h 2.3mph /  3.7km/h 73% 0in /  0.0mm CLR
23:29 78.8 °F /  26.0 °C 69.4 °F /  20.8 °C 29.9in /  1013.3hPa NE 2.9mph /  4.7km/h 4.6mph /  7.4km/h 73% 0in /  0.0mm CLR
23:34 78.8 °F /  26.0 °C 69.8 °F /  21.0 °C 29.9in /  1013.4hPa ENE 2.9mph /  4.7km/h 5.8mph /  9.3km/h 74% 0in /  0.0mm CLR
23:39 78.6 °F /  25.9 °C 70 °F /  21.1 °C 29.9in /  1013.4hPa NNE 3.1mph /  5.0km/h 5.4mph /  8.7km/h 75% 0in /  0.0mm CLR
23:44 78.4 °F /  25.8 °C 70 °F /  21.1 °C 29.9in /  1013.4hPa NNE 3.1mph /  5.0km/h 5.2mph /  8.4km/h 75% 0in /  0.0mm CLR
23:49 78.3 °F /  25.7 °C 70.2 °F /  21.2 °C 29.9in /  1013.5hPa NE 3.6mph /  5.8km/h 6.2mph /  10.0km/h 76% 0in /  0.0mm CLR
23:54 78.1 °F /  25.6 °C 70 °F /  21.1 °C 29.9in /  1013.5hPa NE 3.6mph /  5.8km/h 5.8mph /  9.3km/h 76% 0in /  0.0mm CLR
23:59 77.9 °F /  25.5 °C 70.2 °F /  21.2 °C 29.9in /  1013.5hPa NE 4.3mph /  6.9km/h 5.9mph /  9.5km/h 77% 0in /  0.0mm CLR
Murcia-Puente Tocinos, España
Compliments of Weather Underground - 2.75 mb

La estación de MeteoMurcia.com, publica sus datos en los siguientes proyectos:

Meteoclimatic www.awekas.at

W3Counter
Web Analytics